SCTE 241500Z 01010KT 9999 SCT020 BKN030 12/09 Q1019 NOSIG